sensor_id;sensor_type;location;lat;lon;timestamp;pressure;altitude;pressure_sealevel;temperature;humidity
61961;BME280;47923;42.506;24.192;2024-01-25T00:00:55;95757.59;;;3.96;61.50
61961;BME280;47923;42.506;24.192;2024-01-25T00:03:21;95632.22;;;3.06;62.50
61961;BME280;47923;42.506;24.192;2024-01-25T00:05:48;95697.00;;;3.43;62.80
61961;BME280;47923;42.506;24.192;2024-01-25T00:08:14;95784.38;;;4.04;63.60
61961;BME280;47923;42.506;24.192;2024-01-25T00:10:40;95791.66;;;4.12;64.28
61961;BME280;47923;42.506;24.192;2024-01-25T00:13:06;95685.09;;;3.49;64.42
61961;BME280;47923;42.506;24.192;2024-01-25T00:15:32;95749.13;;;4.02;63.98
61961;BME280;47923;42.506;24.192;2024-01-25T00:17:58;95776.63;;;4.34;64.26
61961;BME280;47923;42.506;24.192;2024-01-25T00:20:23;95612.91;;;3.31;63.60
61961;BME280;47923;42.506;24.192;2024-01-25T00:22:49;95783.56;;;4.35;63.51
61961;BME280;47923;42.506;24.192;2024-01-25T00:25:14;95614.78;;;3.31;61.98
61961;BME280;47923;42.506;24.192;2024-01-25T00:27:40;95775.69;;;4.38;60.73
61961;BME280;47923;42.506;24.192;2024-01-25T00:30:06;95800.16;;;4.63;59.81
61961;BME280;47923;42.506;24.192;2024-01-25T00:32:32;95792.88;;;4.46;58.23
61961;BME280;47923;42.506;24.192;2024-01-25T00:35:00;95742.59;;;4.26;57.92
61961;BME280;47923;42.506;24.192;2024-01-25T00:37:32;95681.50;;;3.93;56.81
61961;BME280;47923;42.506;24.192;2024-01-25T00:39:57;95702.88;;;3.93;57.03
61961;BME280;47923;42.506;24.192;2024-01-25T00:42:23;95776.66;;;4.42;56.61
61961;BME280;47923;42.506;24.192;2024-01-25T00:44:50;95716.28;;;4.02;57.60
61961;BME280;47923;42.506;24.192;2024-01-25T00:47:16;95748.38;;;4.10;57.33
61961;BME280;47923;42.506;24.192;2024-01-25T00:49:42;95567.47;;;2.92;57.24
61961;BME280;47923;42.506;24.192;2024-01-25T00:52:08;95468.75;;;2.30;57.71
61961;BME280;47923;42.506;24.192;2024-01-25T00:54:34;95688.94;;;3.65;58.49
61961;BME280;47923;42.506;24.192;2024-01-25T00:57:00;95727.41;;;3.95;58.61
61961;BME280;47923;42.506;24.192;2024-01-25T00:59:28;95742.19;;;3.93;58.17
61961;BME280;47923;42.506;24.192;2024-01-25T01:01:55;95717.41;;;3.70;58.77
61961;BME280;47923;42.506;24.192;2024-01-25T01:04:21;95738.00;;;3.69;58.19
61961;BME280;47923;42.506;24.192;2024-01-25T01:06:48;95759.13;;;3.88;57.86
61961;BME280;47923;42.506;24.192;2024-01-25T01:09:13;95742.63;;;3.86;57.74
61961;BME280;47923;42.506;24.192;2024-01-25T01:11:40;95726.28;;;3.87;57.82
61961;BME280;47923;42.506;24.192;2024-01-25T01:14:05;95720.31;;;3.82;57.55
61961;BME280;47923;42.506;24.192;2024-01-25T01:16:32;95718.22;;;3.79;57.69
61961;BME280;47923;42.506;24.192;2024-01-25T01:18:59;95701.81;;;3.63;57.17
61961;BME280;47923;42.506;24.192;2024-01-25T01:21:35;95722.50;;;3.88;56.62
61961;BME280;47923;42.506;24.192;2024-01-25T01:24:01;95706.88;;;3.73;56.71
61961;BME280;47923;42.506;24.192;2024-01-25T01:26:30;95668.19;;;3.62;56.54
61961;BME280;47923;42.506;24.192;2024-01-25T01:28:55;95669.19;;;3.75;56.33
61961;BME280;47923;42.506;24.192;2024-01-25T01:31:21;95636.38;;;3.52;55.25
61961;BME280;47923;42.506;24.192;2024-01-25T01:33:48;95262.88;;;1.08;56.11
61961;BME280;47923;42.506;24.192;2024-01-25T01:36:14;95707.44;;;3.93;56.15
61961;BME280;47923;42.506;24.192;2024-01-25T01:38:42;95702.22;;;3.87;56.20
61961;BME280;47923;42.506;24.192;2024-01-25T01:41:10;95706.97;;;3.91;55.40
61961;BME280;47923;42.506;24.192;2024-01-25T01:43:36;95703.69;;;4.02;55.72
61961;BME280;47923;42.506;24.192;2024-01-25T01:46:09;95634.38;;;3.66;56.15
61961;BME280;47923;42.506;24.192;2024-01-25T01:48:36;95676.47;;;4.00;56.87
61961;BME280;47923;42.506;24.192;2024-01-25T01:51:02;95421.31;;;2.18;57.04
61961;BME280;47923;42.506;24.192;2024-01-25T01:53:28;95654.09;;;3.87;56.77
61961;BME280;47923;42.506;24.192;2024-01-25T01:55:55;95593.91;;;3.33;56.76
61961;BME280;47923;42.506;24.192;2024-01-25T01:58:21;95683.38;;;3.93;55.60
61961;BME280;47923;42.506;24.192;2024-01-25T02:00:49;95670.97;;;3.97;55.75
61961;BME280;47923;42.506;24.192;2024-01-25T02:03:16;95671.44;;;3.99;55.40
61961;BME280;47923;42.506;24.192;2024-01-25T02:05:42;95438.72;;;2.46;55.16
61961;BME280;47923;42.506;24.192;2024-01-25T02:08:09;95655.41;;;3.99;54.28
61961;BME280;47923;42.506;24.192;2024-01-25T02:10:34;95466.00;;;2.74;54.04
61961;BME280;47923;42.506;24.192;2024-01-25T02:13:03;95612.44;;;3.78;54.64
61961;BME280;47923;42.506;24.192;2024-01-25T02:15:28;95582.84;;;3.74;54.50
61961;BME280;47923;42.506;24.192;2024-01-25T02:17:55;95510.94;;;3.29;54.74
61961;BME280;47923;42.506;24.192;2024-01-25T02:20:21;95591.38;;;3.76;55.08
61961;BME280;47923;42.506;24.192;2024-01-25T02:22:47;95652.94;;;4.20;56.11
61961;BME280;47923;42.506;24.192;2024-01-25T02:25:13;95510.00;;;3.34;56.01
61961;BME280;47923;42.506;24.192;2024-01-25T02:27:40;95642.25;;;4.20;54.92
61961;BME280;47923;42.506;24.192;2024-01-25T02:30:07;95626.66;;;4.22;55.09
61961;BME280;47923;42.506;24.192;2024-01-25T02:32:33;95647.59;;;4.46;55.19
61961;BME280;47923;42.506;24.192;2024-01-25T02:34:59;95512.72;;;3.51;55.34
61961;BME280;47923;42.506;24.192;2024-01-25T02:37:25;95645.25;;;4.44;56.32
61961;BME280;47923;42.506;24.192;2024-01-25T02:39:55;95608.28;;;4.29;56.34
61961;BME280;47923;42.506;24.192;2024-01-25T02:42:21;95607.94;;;4.30;57.14
61961;BME280;47923;42.506;24.192;2024-01-25T02:44:47;95425.44;;;3.03;57.98
61961;BME280;47923;42.506;24.192;2024-01-25T02:47:15;95632.19;;;4.34;58.02
61961;BME280;47923;42.506;24.192;2024-01-25T02:49:41;95475.28;;;3.25;58.46
61961;BME280;47923;42.506;24.192;2024-01-25T02:52:07;95631.09;;;4.35;58.46
61961;BME280;47923;42.506;24.192;2024-01-25T02:54:37;95519.50;;;3.57;57.89
61961;BME280;47923;42.506;24.192;2024-01-25T02:57:04;95634.69;;;4.48;57.75
61961;BME280;47923;42.506;24.192;2024-01-25T02:59:30;95500.78;;;3.66;58.26
61961;BME280;47923;42.506;24.192;2024-01-25T03:01:56;95651.72;;;4.52;57.53
61961;BME280;47923;42.506;24.192;2024-01-25T03:04:22;95584.34;;;4.06;57.32
61961;BME280;47923;42.506;24.192;2024-01-25T03:06:48;95511.03;;;3.73;57.51
61961;BME280;47923;42.506;24.192;2024-01-25T03:09:14;95418.72;;;3.15;57.12
61961;BME280;47923;42.506;24.192;2024-01-25T03:11:42;95596.31;;;4.26;58.22
61961;BME280;47923;42.506;24.192;2024-01-25T03:14:07;95341.03;;;2.51;58.66
61961;BME280;47923;42.506;24.192;2024-01-25T03:16:33;95559.75;;;3.70;58.85
61961;BME280;47923;42.506;24.192;2024-01-25T03:18:59;95581.66;;;4.06;58.50
61961;BME280;47923;42.506;24.192;2024-01-25T03:21:27;95417.31;;;3.09;60.33
61961;BME280;47923;42.506;24.192;2024-01-25T03:23:57;95543.91;;;3.82;59.71
61961;BME280;47923;42.506;24.192;2024-01-25T03:26:22;95632.66;;;4.53;59.86
61961;BME280;47923;42.506;24.192;2024-01-25T03:28:48;95621.34;;;4.56;59.93
61961;BME280;47923;42.506;24.192;2024-01-25T03:31:14;95501.75;;;3.79;60.33
61961;BME280;47923;42.506;24.192;2024-01-25T03:33:40;95612.06;;;4.71;59.39
61961;BME280;47923;42.506;24.192;2024-01-25T03:36:06;95625.25;;;4.76;59.94
61961;BME280;47923;42.506;24.192;2024-01-25T03:38:33;95583.41;;;4.37;59.94
61961;BME280;47923;42.506;24.192;2024-01-25T03:41:00;95444.22;;;3.47;60.45
61961;BME280;47923;42.506;24.192;2024-01-25T03:43:27;95631.25;;;4.73;60.77
61961;BME280;47923;42.506;24.192;2024-01-25T03:45:53;95640.69;;;4.88;59.50
61961;BME280;47923;42.506;24.192;2024-01-25T03:48:21;95579.63;;;4.64;59.60
61961;BME280;47923;42.506;24.192;2024-01-25T03:50:48;95658.16;;;5.03;59.70
61961;BME280;47923;42.506;24.192;2024-01-25T03:53:14;95644.28;;;5.01;59.93
61961;BME280;47923;42.506;24.192;2024-01-25T03:55:41;95477.72;;;4.05;60.07
61961;BME280;47923;42.506;24.192;2024-01-25T03:58:08;95638.59;;;5.11;59.63
61961;BME280;47923;42.506;24.192;2024-01-25T04:00:34;95393.16;;;3.57;59.22
61961;BME280;47923;42.506;24.192;2024-01-25T04:03:00;95531.97;;;4.49;58.84
61961;BME280;47923;42.506;24.192;2024-01-25T04:05:27;95637.34;;;5.08;58.93
61961;BME280;47923;42.506;24.192;2024-01-25T04:07:52;95564.38;;;4.56;59.29
61961;BME280;47923;42.506;24.192;2024-01-25T04:10:21;95679.72;;;5.06;59.35
61961;BME280;47923;42.506;24.192;2024-01-25T04:12:49;95626.16;;;4.97;59.71
61961;BME280;47923;42.506;24.192;2024-01-25T04:15:14;95613.09;;;4.96;59.79
61961;BME280;47923;42.506;24.192;2024-01-25T04:17:43;95605.84;;;4.96;60.55
61961;BME280;47923;42.506;24.192;2024-01-25T04:20:09;95392.50;;;3.51;60.81
61961;BME280;47923;42.506;24.192;2024-01-25T04:22:35;95555.53;;;4.47;61.06
61961;BME280;47923;42.506;24.192;2024-01-25T04:25:01;95632.16;;;5.03;60.99
61961;BME280;47923;42.506;24.192;2024-01-25T04:27:27;95626.31;;;5.10;61.15
61961;BME280;47923;42.506;24.192;2024-01-25T04:29:53;95635.59;;;5.12;60.97
61961;BME280;47923;42.506;24.192;2024-01-25T04:32:20;95599.25;;;4.94;61.19
61961;BME280;47923;42.506;24.192;2024-01-25T04:34:45;95620.78;;;5.15;60.73
61961;BME280;47923;42.506;24.192;2024-01-25T04:37:15;95638.44;;;5.16;61.42
61961;BME280;47923;42.506;24.192;2024-01-25T04:39:43;95602.84;;;4.98;61.71
61961;BME280;47923;42.506;24.192;2024-01-25T04:42:09;95575.19;;;4.77;62.36
61961;BME280;47923;42.506;24.192;2024-01-25T04:44:34;95597.81;;;4.96;61.87
61961;BME280;47923;42.506;24.192;2024-01-25T04:47:06;95540.59;;;4.63;62.27
61961;BME280;47923;42.506;24.192;2024-01-25T04:49:33;95595.00;;;5.02;62.87
61961;BME280;47923;42.506;24.192;2024-01-25T04:51:58;95566.53;;;4.80;62.84
61961;BME280;47923;42.506;24.192;2024-01-25T04:54:24;95594.66;;;5.03;63.05
61961;BME280;47923;42.506;24.192;2024-01-25T04:56:49;95319.16;;;3.40;63.15
61961;BME280;47923;42.506;24.192;2024-01-25T04:59:17;95518.06;;;4.55;63.04
61961;BME280;47923;42.506;24.192;2024-01-25T05:01:43;95644.41;;;5.21;63.46
61961;BME280;47923;42.506;24.192;2024-01-25T05:04:09;95527.84;;;4.51;63.79
61961;BME280;47923;42.506;24.192;2024-01-25T05:06:35;95632.09;;;5.20;64.27
61961;BME280;47923;42.506;24.192;2024-01-25T05:09:03;95631.81;;;5.13;63.69
61961;BME280;47923;42.506;24.192;2024-01-25T05:11:30;95534.47;;;4.45;64.63
61961;BME280;47923;42.506;24.192;2024-01-25T05:13:57;95632.44;;;5.10;64.14
61961;BME280;47923;42.506;24.192;2024-01-25T05:16:23;95390.63;;;3.43;64.95
61961;BME280;47923;42.506;24.192;2024-01-25T05:18:49;95642.88;;;5.03;64.89
61961;BME280;47923;42.506;24.192;2024-01-25T05:21:15;95616.75;;;4.83;65.17
61961;BME280;47923;42.506;24.192;2024-01-25T05:23:41;95426.44;;;3.42;64.59
61961;BME280;47923;42.506;24.192;2024-01-25T05:26:07;95549.44;;;4.29;65.01
61961;BME280;47923;42.506;24.192;2024-01-25T05:28:33;95594.91;;;4.37;65.14
61961;BME280;47923;42.506;24.192;2024-01-25T05:30:59;95499.41;;;3.86;65.16
61961;BME280;47923;42.506;24.192;2024-01-25T05:33:27;95533.69;;;4.10;65.46
61961;BME280;47923;42.506;24.192;2024-01-25T05:35:54;95671.22;;;4.95;66.18
61961;BME280;47923;42.506;24.192;2024-01-25T05:38:23;95500.97;;;3.87;66.17
61961;BME280;47923;42.506;24.192;2024-01-25T05:40:50;95686.97;;;4.97;66.13
61961;BME280;47923;42.506;24.192;2024-01-25T05:43:18;95700.81;;;4.99;65.95
61961;BME280;47923;42.506;24.192;2024-01-25T05:45:45;95688.72;;;5.02;66.12
61961;BME280;47923;42.506;24.192;2024-01-25T05:48:12;95530.38;;;3.78;65.90
61961;BME280;47923;42.506;24.192;2024-01-25T05:50:39;95493.56;;;3.49;66.36
61961;BME280;47923;42.506;24.192;2024-01-25T05:53:06;95718.63;;;4.95;66.76
61961;BME280;47923;42.506;24.192;2024-01-25T05:55:31;95717.38;;;4.92;67.11
61961;BME280;47923;42.506;24.192;2024-01-25T05:57:57;95452.63;;;3.14;67.12
61961;BME280;47923;42.506;24.192;2024-01-25T06:00:23;95723.03;;;4.91;67.00
61961;BME280;47923;42.506;24.192;2024-01-25T06:02:49;95701.78;;;4.86;66.67
61961;BME280;47923;42.506;24.192;2024-01-25T06:05:15;95439.59;;;3.21;66.73
61961;BME280;47923;42.506;24.192;2024-01-25T06:07:40;95697.38;;;4.90;66.36
61961;BME280;47923;42.506;24.192;2024-01-25T06:10:06;95696.44;;;4.94;66.14
61961;BME280;47923;42.506;24.192;2024-01-25T06:12:32;95613.94;;;4.36;66.63
61961;BME280;47923;42.506;24.192;2024-01-25T06:15:01;95708.84;;;4.99;66.72
61961;BME280;47923;42.506;24.192;2024-01-25T06:17:30;95714.06;;;5.04;65.88
61961;BME280;47923;42.506;24.192;2024-01-25T06:19:57;95726.50;;;5.09;66.36
61961;BME280;47923;42.506;24.192;2024-01-25T06:22:23;95707.28;;;5.07;65.69
61961;BME280;47923;42.506;24.192;2024-01-25T06:24:51;95662.72;;;4.59;66.14
61961;BME280;47923;42.506;24.192;2024-01-25T06:27:18;95722.72;;;5.01;66.13
61961;BME280;47923;42.506;24.192;2024-01-25T06:29:43;95565.47;;;4.11;65.79
61961;BME280;47923;42.506;24.192;2024-01-25T06:32:10;95723.03;;;5.08;66.30
61961;BME280;47923;42.506;24.192;2024-01-25T06:34:35;95709.50;;;5.22;65.87
61961;BME280;47923;42.506;24.192;2024-01-25T06:37:01;95724.78;;;5.21;65.15
61961;BME280;47923;42.506;24.192;2024-01-25T06:39:27;95583.41;;;4.46;65.45
61961;BME280;47923;42.506;24.192;2024-01-25T06:41:55;95730.91;;;5.31;64.39
61961;BME280;47923;42.506;24.192;2024-01-25T06:44:25;95711.97;;;5.44;64.22
61961;BME280;47923;42.506;24.192;2024-01-25T06:46:52;95714.63;;;5.36;64.08
61961;BME280;47923;42.506;24.192;2024-01-25T06:49:18;95662.41;;;5.04;64.43
61961;BME280;47923;42.506;24.192;2024-01-25T06:51:47;95652.31;;;5.09;63.69
61961;BME280;47923;42.506;24.192;2024-01-25T06:54:13;95703.75;;;5.49;63.82
61961;BME280;47923;42.506;24.192;2024-01-25T06:56:39;95722.97;;;5.60;63.86
61961;BME280;47923;42.506;24.192;2024-01-25T06:59:05;95542.78;;;4.61;62.47
61961;BME280;47923;42.506;24.192;2024-01-25T07:01:30;95670.19;;;5.52;62.88
61961;BME280;47923;42.506;24.192;2024-01-25T07:03:56;95715.25;;;6.64;59.41
61961;BME280;47923;42.506;24.192;2024-01-25T07:06:21;95709.34;;;6.50;59.24
61961;BME280;47923;42.506;24.192;2024-01-25T07:08:48;95712.72;;;6.38;59.60
61961;BME280;47923;42.506;24.192;2024-01-25T07:11:14;95659.72;;;5.68;60.78
61961;BME280;47923;42.506;24.192;2024-01-25T07:13:42;95731.25;;;6.23;60.50
61961;BME280;47923;42.506;24.192;2024-01-25T07:16:08;95621.91;;;5.99;58.90
61961;BME280;47923;42.506;24.192;2024-01-25T07:18:33;95625.16;;;6.55;56.84
61961;BME280;47923;42.506;24.192;2024-01-25T07:21:06;95335.50;;;4.20;58.06
61961;BME280;47923;42.506;24.192;2024-01-25T07:23:33;95721.31;;;6.32;59.03
61961;BME280;47923;42.506;24.192;2024-01-25T07:26:01;95578.69;;;5.24;59.94
61961;BME280;47923;42.506;24.192;2024-01-25T07:28:28;95725.03;;;6.10;61.08
61961;BME280;47923;42.506;24.192;2024-01-25T07:30:54;95491.31;;;4.55;61.43
61961;BME280;47923;42.506;24.192;2024-01-25T07:33:21;95633.47;;;5.44;61.91
61961;BME280;47923;42.506;24.192;2024-01-25T07:35:48;95719.06;;;6.04;61.93
61961;BME280;47923;42.506;24.192;2024-01-25T07:38:17;95713.66;;;6.13;62.07
61961;BME280;47923;42.506;24.192;2024-01-25T07:40:43;95503.00;;;4.97;61.31
61961;BME280;47923;42.506;24.192;2024-01-25T07:43:09;95681.97;;;6.06;61.26
61961;BME280;47923;42.506;24.192;2024-01-25T07:45:36;95481.50;;;4.85;61.66
61961;BME280;47923;42.506;24.192;2024-01-25T07:48:03;95556.28;;;5.37;61.08
61961;BME280;47923;42.506;24.192;2024-01-25T07:50:32;95700.78;;;6.57;60.34
61961;BME280;47923;42.506;24.192;2024-01-25T07:52:58;95523.50;;;5.61;59.74
61961;BME280;47923;42.506;24.192;2024-01-25T07:55:26;95559.16;;;5.91;59.77
61961;BME280;47923;42.506;24.192;2024-01-25T07:57:53;95687.75;;;6.88;59.27
61961;BME280;47923;42.506;24.192;2024-01-25T08:00:19;95693.25;;;7.13;58.45
61961;BME280;47923;42.506;24.192;2024-01-25T08:02:45;95681.50;;;7.51;57.41
61961;BME280;47923;42.506;24.192;2024-01-25T08:05:10;95665.06;;;7.76;55.10
61961;BME280;47923;42.506;24.192;2024-01-25T08:07:38;95538.19;;;7.26;54.46
61961;BME280;47923;42.506;24.192;2024-01-25T08:10:06;95352.03;;;6.40;52.89
61961;BME280;47923;42.506;24.192;2024-01-25T08:12:33;95671.06;;;8.83;52.23
61961;BME280;47923;42.506;24.192;2024-01-25T08:15:00;95667.06;;;9.33;50.43
61961;BME280;47923;42.506;24.192;2024-01-25T08:17:26;95687.34;;;9.43;49.76
61961;BME280;47923;42.506;24.192;2024-01-25T08:19:51;95614.88;;;8.70;50.51
61961;BME280;47923;42.506;24.192;2024-01-25T08:22:17;95629.66;;;8.36;51.85
61961;BME280;47923;42.506;24.192;2024-01-25T08:24:43;95694.56;;;8.58;52.04
61961;BME280;47923;42.506;24.192;2024-01-25T08:27:08;95392.00;;;6.78;51.69
61961;BME280;47923;42.506;24.192;2024-01-25T08:29:34;95665.91;;;9.19;50.57
61961;BME280;47923;42.506;24.192;2024-01-25T08:32:02;95644.03;;;9.67;48.45
61961;BME280;47923;42.506;24.192;2024-01-25T08:34:28;95462.50;;;9.00;47.23
61961;BME280;47923;42.506;24.192;2024-01-25T08:36:54;95596.78;;;9.42;47.14
61961;BME280;47923;42.506;24.192;2024-01-25T08:39:19;95695.44;;;10.69;46.35
61961;BME280;47923;42.506;24.192;2024-01-25T08:41:45;95682.50;;;10.94;44.69
61961;BME280;47923;42.506;24.192;2024-01-25T08:44:12;95714.47;;;10.92;45.17
61961;BME280;47923;42.506;24.192;2024-01-25T08:46:38;95682.63;;;10.15;46.17
61961;BME280;47923;42.506;24.192;2024-01-25T08:49:04;95657.88;;;9.82;47.41
61961;BME280;47923;42.506;24.192;2024-01-25T08:51:34;95706.81;;;10.12;46.74
61961;BME280;47923;42.506;24.192;2024-01-25T08:53:59;95706.13;;;9.99;47.74
61961;BME280;47923;42.506;24.192;2024-01-25T08:56:26;95709.78;;;10.07;47.46
61961;BME280;47923;42.506;24.192;2024-01-25T08:58:56;95652.47;;;10.13;46.45
61961;BME280;47923;42.506;24.192;2024-01-25T09:01:25;95692.84;;;10.73;45.47
61961;BME280;47923;42.506;24.192;2024-01-25T09:03:53;95441.13;;;9.07;45.90
61961;BME280;47923;42.506;24.192;2024-01-25T09:06:20;95697.25;;;10.46;45.63
61961;BME280;47923;42.506;24.192;2024-01-25T09:08:47;95688.28;;;10.26;46.08
61961;BME280;47923;42.506;24.192;2024-01-25T09:11:12;95695.50;;;10.54;46.03
61961;BME280;47923;42.506;24.192;2024-01-25T09:13:41;95429.50;;;9.03;45.30
61961;BME280;47923;42.506;24.192;2024-01-25T09:16:13;95686.28;;;11.09;44.68
61961;BME280;47923;42.506;24.192;2024-01-25T09:18:38;95685.19;;;10.59;45.39
61961;BME280;47923;42.506;24.192;2024-01-25T09:21:04;95650.75;;;10.05;46.20
61961;BME280;47923;42.506;24.192;2024-01-25T09:23:32;95703.09;;;10.16;47.18
61961;BME280;47923;42.506;24.192;2024-01-25T09:25:57;95533.88;;;9.54;45.51
61961;BME280;47923;42.506;24.192;2024-01-25T09:28:23;95560.16;;;9.57;45.92
61961;BME280;47923;42.506;24.192;2024-01-25T09:30:50;95596.41;;;9.91;45.90
61961;BME280;47923;42.506;24.192;2024-01-25T09:33:18;95388.44;;;8.47;46.12
61961;BME280;47923;42.506;24.192;2024-01-25T09:35:44;95686.84;;;9.69;47.21
61961;BME280;47923;42.506;24.192;2024-01-25T09:38:13;95636.47;;;9.57;47.67
61961;BME280;47923;42.506;24.192;2024-01-25T09:40:41;95686.91;;;10.01;47.16
61961;BME280;47923;42.506;24.192;2024-01-25T09:43:06;95638.91;;;9.94;46.46
61961;BME280;47923;42.506;24.192;2024-01-25T09:45:34;95044.34;;;5.91;45.84
61961;BME280;47923;42.506;24.192;2024-01-25T09:48:00;95691.97;;;10.69;45.28
61961;BME280;47923;42.506;24.192;2024-01-25T09:50:30;95696.34;;;11.51;43.06
61961;BME280;47923;42.506;24.192;2024-01-25T09:52:59;95595.03;;;10.87;43.24
61961;BME280;47923;42.506;24.192;2024-01-25T09:55:30;95686.94;;;12.06;42.42
61961;BME280;47923;42.506;24.192;2024-01-25T09:57:59;95582.16;;;11.19;42.66
61961;BME280;47923;42.506;24.192;2024-01-25T10:00:27;95694.66;;;11.43;42.96
61961;BME280;47923;42.506;24.192;2024-01-25T10:02:53;95624.38;;;10.65;43.85
61961;BME280;47923;42.506;24.192;2024-01-25T10:05:27;95534.91;;;10.16;43.24
61961;BME280;47923;42.506;24.192;2024-01-25T10:07:53;95684.44;;;10.27;44.90
61961;BME280;47923;42.506;24.192;2024-01-25T10:10:20;95684.00;;;10.09;45.21
61961;BME280;47923;42.506;24.192;2024-01-25T10:12:46;95375.84;;;8.51;45.27
61961;BME280;47923;42.506;24.192;2024-01-25T10:15:12;95654.34;;;10.79;43.73
61961;BME280;47923;42.506;24.192;2024-01-25T10:17:39;95636.84;;;11.74;41.34
61961;BME280;47923;42.506;24.192;2024-01-25T10:20:05;95664.53;;;12.89;40.17
61961;BME280;47923;42.506;24.192;2024-01-25T10:22:36;95672.06;;;13.66;39.13
61961;BME280;47923;42.506;24.192;2024-01-25T10:25:02;95659.53;;;13.21;38.67
61961;BME280;47923;42.506;24.192;2024-01-25T10:27:28;95605.56;;;12.26;39.13
61961;BME280;47923;42.506;24.192;2024-01-25T10:29:55;95627.44;;;11.87;40.56
61961;BME280;47923;42.506;24.192;2024-01-25T10:32:21;95651.88;;;11.91;41.58
61961;BME280;47923;42.506;24.192;2024-01-25T10:34:47;95615.09;;;11.24;41.93
61961;BME280;47923;42.506;24.192;2024-01-25T10:37:14;95195.75;;;8.46;41.59
61961;BME280;47923;42.506;24.192;2024-01-25T10:39:41;95576.91;;;10.48;42.73
61961;BME280;47923;42.506;24.192;2024-01-25T10:42:07;95581.38;;;10.41;43.85
61961;BME280;47923;42.506;24.192;2024-01-25T10:44:32;95596.06;;;10.08;43.65
61961;BME280;47923;42.506;24.192;2024-01-25T10:46:58;95641.25;;;9.95;45.42
61961;BME280;47923;42.506;24.192;2024-01-25T10:49:27;95646.59;;;10.23;45.71
61961;BME280;47923;42.506;24.192;2024-01-25T10:51:54;95628.38;;;10.36;44.52
61961;BME280;47923;42.506;24.192;2024-01-25T10:54:20;95452.16;;;9.18;45.22
61961;BME280;47923;42.506;24.192;2024-01-25T10:56:48;95557.13;;;10.25;44.25
61961;BME280;47923;42.506;24.192;2024-01-25T10:59:15;95492.94;;;10.18;43.35
61961;BME280;47923;42.506;24.192;2024-01-25T11:01:45;95621.53;;;11.81;41.68
61961;BME280;47923;42.506;24.192;2024-01-25T11:04:19;95521.53;;;11.43;39.83
61961;BME280;47923;42.506;24.192;2024-01-25T11:06:45;95380.19;;;10.73;40.66
61961;BME280;47923;42.506;24.192;2024-01-25T11:09:19;95551.50;;;12.33;39.32
61961;BME280;47923;42.506;24.192;2024-01-25T11:11:48;95596.84;;;12.96;39.28
61961;BME280;47923;42.506;24.192;2024-01-25T11:14:14;95539.53;;;12.34;38.83
61961;BME280;47923;42.506;24.192;2024-01-25T11:16:42;95608.78;;;12.91;39.18
61961;BME280;47923;42.506;24.192;2024-01-25T11:19:17;95315.53;;;11.41;38.98
61961;BME280;47923;42.506;24.192;2024-01-25T11:21:45;95587.00;;;12.84;39.29
61961;BME280;47923;42.506;24.192;2024-01-25T11:24:24;95520.34;;;11.89;40.30
61961;BME280;47923;42.506;24.192;2024-01-25T11:26:54;95563.91;;;11.81;40.99
61961;BME280;47923;42.506;24.192;2024-01-25T11:29:21;95484.84;;;11.22;41.02
61961;BME280;47923;42.506;24.192;2024-01-25T11:31:48;95567.69;;;11.76;40.90
61961;BME280;47923;42.506;24.192;2024-01-25T11:34:15;95580.81;;;11.97;40.72
61961;BME280;47923;42.506;24.192;2024-01-25T11:36:41;95536.69;;;10.82;41.88
61961;BME280;47923;42.506;24.192;2024-01-25T11:39:09;95277.03;;;8.86;42.87
61961;BME280;47923;42.506;24.192;2024-01-25T11:41:35;95500.00;;;9.88;44.91
61961;BME280;47923;42.506;24.192;2024-01-25T11:44:02;95574.66;;;10.00;44.97
61961;BME280;47923;42.506;24.192;2024-01-25T11:46:28;95576.25;;;9.85;45.58
61961;BME280;47923;42.506;24.192;2024-01-25T11:48:55;95454.66;;;8.79;45.74
61961;BME280;47923;42.506;24.192;2024-01-25T11:51:22;95574.84;;;9.75;45.94
61961;BME280;47923;42.506;24.192;2024-01-25T11:53:47;95584.44;;;9.88;46.41
61961;BME280;47923;42.506;24.192;2024-01-25T11:56:16;95453.72;;;8.88;46.03
61961;BME280;47923;42.506;24.192;2024-01-25T11:58:45;95592.19;;;9.43;47.22
61961;BME280;47923;42.506;24.192;2024-01-25T12:01:12;95549.25;;;8.90;47.09
61961;BME280;47923;42.506;24.192;2024-01-25T12:03:38;95607.50;;;9.10;47.62
61961;BME280;47923;42.506;24.192;2024-01-25T12:06:04;95607.47;;;8.95;47.79
61961;BME280;47923;42.506;24.192;2024-01-25T12:08:32;95569.78;;;8.67;48.09
61961;BME280;47923;42.506;24.192;2024-01-25T12:11:05;95600.28;;;8.99;47.99
61961;BME280;47923;42.506;24.192;2024-01-25T12:13:38;95391.41;;;7.33;48.76
61961;BME280;47923;42.506;24.192;2024-01-25T12:16:05;95506.72;;;7.75;49.03
61961;BME280;47923;42.506;24.192;2024-01-25T12:18:31;95477.41;;;7.45;49.58
61961;BME280;47923;42.506;24.192;2024-01-25T12:21:02;95384.41;;;6.92;49.47
61961;BME280;47923;42.506;24.192;2024-01-25T12:23:36;95600.69;;;8.32;49.35
61961;BME280;47923;42.506;24.192;2024-01-25T12:26:05;95518.16;;;7.47;49.75
61961;BME280;47923;42.506;24.192;2024-01-25T12:28:31;95462.06;;;7.46;50.64
61961;BME280;47923;42.506;24.192;2024-01-25T12:30:58;95317.59;;;6.66;50.12
61961;BME280;47923;42.506;24.192;2024-01-25T12:33:27;95597.34;;;8.23;50.90
61961;BME280;47923;42.506;24.192;2024-01-25T12:35:52;95573.50;;;7.73;50.89
61961;BME280;47923;42.506;24.192;2024-01-25T12:38:21;95550.88;;;7.62;50.98
61961;BME280;47923;42.506;24.192;2024-01-25T12:40:49;95580.47;;;7.86;51.64
61961;BME280;47923;42.506;24.192;2024-01-25T12:43:15;95464.50;;;6.78;52.32
61961;BME280;47923;42.506;24.192;2024-01-25T12:45:42;95574.06;;;7.54;52.87
61961;BME280;47923;42.506;24.192;2024-01-25T12:48:07;95528.16;;;7.35;52.84
61961;BME280;47923;42.506;24.192;2024-01-25T12:50:34;95565.44;;;7.73;52.18
61961;BME280;47923;42.506;24.192;2024-01-25T12:53:01;95570.16;;;7.64;53.18
61961;BME280;47923;42.506;24.192;2024-01-25T12:55:28;95490.72;;;7.17;52.91